Terminal Aerodrome Forecast
Issued by NWS Boise, ID

Home | Current Version | Previous Version | Text Only | Print | Product List | Glossary On
Versions: 1 2 3 4 5 6 7 8 9 10 11 12 13
000
FTUS45 KBOI 241124
TAFBOI
TAF
KBOI 241124Z 2412/2512 13005KT P6SM -SHRA SCT080 OVC120
     FM241400 13006KT P6SM FEW080 BKN150
     FM241700 13011KT P6SM SCT250=

USA.gov is the U.S. government's official web portal to all federal, state and local government web resources and services.